sensor_id;sensor_type;location;lat;lon;timestamp;P1;durP1;ratioP1;P2;durP2;ratioP2
71174;SDS011;58876;51.994;4.472;2024-01-25T00:01:11;6544.35;;;6007.58;;
71174;SDS011;58876;51.994;4.472;2024-01-25T00:03:37;6636.47;;;6070.03;;
71174;SDS011;58876;51.994;4.472;2024-01-25T00:06:04;6584.02;;;6054.54;;
71174;SDS011;58876;51.994;4.472;2024-01-25T00:08:30;6376.29;;;5920.88;;
71174;SDS011;58876;51.994;4.472;2024-01-25T00:10:59;6349.26;;;5899.23;;
71174;SDS011;58876;51.994;4.472;2024-01-25T00:13:24;6217.97;;;5822.98;;
71174;SDS011;58876;51.994;4.472;2024-01-25T00:15:50;6055.14;;;5766.37;;
71174;SDS011;58876;51.994;4.472;2024-01-25T00:18:16;6268.39;;;5976.32;;
71174;SDS011;58876;51.994;4.472;2024-01-25T00:20:42;6375.05;;;6020.97;;
71174;SDS011;58876;51.994;4.472;2024-01-25T00:23:07;6234.28;;;5916.18;;
71174;SDS011;58876;51.994;4.472;2024-01-25T00:25:33;5940.21;;;5753.26;;
71174;SDS011;58876;51.994;4.472;2024-01-25T00:27:58;5976.61;;;5788.95;;
71174;SDS011;58876;51.994;4.472;2024-01-25T00:30:24;6103.02;;;5950.91;;
71174;SDS011;58876;51.994;4.472;2024-01-25T00:32:50;6427.16;;;6110.38;;
71174;SDS011;58876;51.994;4.472;2024-01-25T00:35:15;6606.23;;;6194.89;;
71174;SDS011;58876;51.994;4.472;2024-01-25T00:37:41;6324.93;;;5995.95;;
71174;SDS011;58876;51.994;4.472;2024-01-25T00:40:07;6407.39;;;6043.69;;
71174;SDS011;58876;51.994;4.472;2024-01-25T00:42:36;6167.94;;;5812.65;;
71174;SDS011;58876;51.994;4.472;2024-01-25T00:45:07;6038.92;;;5810.34;;
71174;SDS011;58876;51.994;4.472;2024-01-25T00:47:34;5985.46;;;5758.35;;
71174;SDS011;58876;51.994;4.472;2024-01-25T00:49:59;6165.60;;;5816.69;;
71174;SDS011;58876;51.994;4.472;2024-01-25T00:52:28;6209.37;;;5885.77;;
71174;SDS011;58876;51.994;4.472;2024-01-25T00:54:53;6091.11;;;5806.16;;
71174;SDS011;58876;51.994;4.472;2024-01-25T00:57:22;5230.39;;;5226.14;;
71174;SDS011;58876;51.994;4.472;2024-01-25T00:59:48;5631.56;;;5628.86;;
71174;SDS011;58876;51.994;4.472;2024-01-25T01:02:14;5534.05;;;5528.55;;
71174;SDS011;58876;51.994;4.472;2024-01-25T01:04:40;5609.42;;;5609.42;;
71174;SDS011;58876;51.994;4.472;2024-01-25T01:07:06;5576.45;;;5576.45;;
71174;SDS011;58876;51.994;4.472;2024-01-25T01:09:32;5609.30;;;5607.01;;
71174;SDS011;58876;51.994;4.472;2024-01-25T01:11:58;5611.16;;;5608.30;;
71174;SDS011;58876;51.994;4.472;2024-01-25T01:14:24;5598.28;;;5595.45;;
71174;SDS011;58876;51.994;4.472;2024-01-25T01:16:50;5686.78;;;5681.80;;
71174;SDS011;58876;51.994;4.472;2024-01-25T01:19:18;5650.93;;;5650.65;;
71174;SDS011;58876;51.994;4.472;2024-01-25T01:21:44;5404.82;;;5404.82;;
71174;SDS011;58876;51.994;4.472;2024-01-25T01:24:10;5205.84;;;5205.84;;
71174;SDS011;58876;51.994;4.472;2024-01-25T01:26:36;5440.84;;;5440.84;;
71174;SDS011;58876;51.994;4.472;2024-01-25T01:29:02;5461.16;;;5461.16;;
71174;SDS011;58876;51.994;4.472;2024-01-25T01:31:28;5422.60;;;5422.60;;
71174;SDS011;58876;51.994;4.472;2024-01-25T01:33:53;5469.74;;;5469.74;;
71174;SDS011;58876;51.994;4.472;2024-01-25T01:36:19;5376.44;;;5376.44;;
71174;SDS011;58876;51.994;4.472;2024-01-25T01:38:46;5316.14;;;5316.14;;
71174;SDS011;58876;51.994;4.472;2024-01-25T01:41:11;5294.48;;;5294.48;;
71174;SDS011;58876;51.994;4.472;2024-01-25T01:43:38;5167.58;;;5167.58;;
71174;SDS011;58876;51.994;4.472;2024-01-25T01:46:06;5223.93;;;5223.93;;
71174;SDS011;58876;51.994;4.472;2024-01-25T01:48:36;5029.98;;;5029.98;;
71174;SDS011;58876;51.994;4.472;2024-01-25T01:51:05;5221.36;;;5221.36;;
71174;SDS011;58876;51.994;4.472;2024-01-25T01:53:32;5266.64;;;5266.64;;
71174;SDS011;58876;51.994;4.472;2024-01-25T01:56:00;5099.01;;;5099.01;;
71174;SDS011;58876;51.994;4.472;2024-01-25T01:58:28;4941.28;;;4941.28;;
71174;SDS011;58876;51.994;4.472;2024-01-25T02:00:56;5114.97;;;5114.97;;
71174;SDS011;58876;51.994;4.472;2024-01-25T02:03:22;5319.27;;;5319.27;;
71174;SDS011;58876;51.994;4.472;2024-01-25T02:05:47;5222.96;;;5222.96;;
71174;SDS011;58876;51.994;4.472;2024-01-25T02:08:13;5155.89;;;5155.89;;
71174;SDS011;58876;51.994;4.472;2024-01-25T02:10:40;5109.11;;;5109.11;;
71174;SDS011;58876;51.994;4.472;2024-01-25T02:13:05;5225.10;;;5225.10;;
71174;SDS011;58876;51.994;4.472;2024-01-25T02:15:31;5108.15;;;5108.15;;
71174;SDS011;58876;51.994;4.472;2024-01-25T02:17:56;4908.63;;;4908.63;;
71174;SDS011;58876;51.994;4.472;2024-01-25T02:20:22;5042.78;;;5042.78;;
71174;SDS011;58876;51.994;4.472;2024-01-25T02:22:47;5145.27;;;5145.27;;
71174;SDS011;58876;51.994;4.472;2024-01-25T02:25:13;5116.61;;;5116.61;;
71174;SDS011;58876;51.994;4.472;2024-01-25T02:27:39;5061.02;;;5061.02;;
71174;SDS011;58876;51.994;4.472;2024-01-25T02:30:07;4952.76;;;4952.76;;
71174;SDS011;58876;51.994;4.472;2024-01-25T02:32:33;4952.42;;;4952.42;;
71174;SDS011;58876;51.994;4.472;2024-01-25T02:34:59;4942.12;;;4942.12;;
71174;SDS011;58876;51.994;4.472;2024-01-25T02:37:28;4735.13;;;4735.13;;
71174;SDS011;58876;51.994;4.472;2024-01-25T02:39:53;4839.85;;;4839.85;;
71174;SDS011;58876;51.994;4.472;2024-01-25T02:42:19;5027.58;;;5027.58;;
71174;SDS011;58876;51.994;4.472;2024-01-25T02:44:44;4785.42;;;4785.42;;
71174;SDS011;58876;51.994;4.472;2024-01-25T02:47:10;4574.38;;;4574.38;;
71174;SDS011;58876;51.994;4.472;2024-01-25T02:49:35;4549.52;;;4549.52;;
71174;SDS011;58876;51.994;4.472;2024-01-25T02:52:01;4751.72;;;4751.72;;
71174;SDS011;58876;51.994;4.472;2024-01-25T02:54:26;4895.39;;;4895.39;;
71174;SDS011;58876;51.994;4.472;2024-01-25T02:56:52;4272.89;;;4272.89;;
71174;SDS011;58876;51.994;4.472;2024-01-25T02:59:18;4222.68;;;4222.68;;
71174;SDS011;58876;51.994;4.472;2024-01-25T03:01:43;4169.05;;;4169.05;;
71174;SDS011;58876;51.994;4.472;2024-01-25T03:04:10;4229.86;;;4229.86;;
71174;SDS011;58876;51.994;4.472;2024-01-25T03:06:36;4288.20;;;4288.20;;
71174;SDS011;58876;51.994;4.472;2024-01-25T03:09:02;4184.80;;;4184.80;;
71174;SDS011;58876;51.994;4.472;2024-01-25T03:11:30;4179.33;;;4179.33;;
71174;SDS011;58876;51.994;4.472;2024-01-25T03:13:56;4482.16;;;4482.16;;
71174;SDS011;58876;51.994;4.472;2024-01-25T03:16:22;4431.76;;;4431.76;;
71174;SDS011;58876;51.994;4.472;2024-01-25T03:18:47;4253.04;;;4253.04;;
71174;SDS011;58876;51.994;4.472;2024-01-25T03:21:13;4394.79;;;4394.79;;
71174;SDS011;58876;51.994;4.472;2024-01-25T03:23:38;4447.13;;;4447.13;;
71174;SDS011;58876;51.994;4.472;2024-01-25T03:26:04;4612.28;;;4612.28;;
71174;SDS011;58876;51.994;4.472;2024-01-25T03:28:29;3983.86;;;3983.86;;
71174;SDS011;58876;51.994;4.472;2024-01-25T03:30:55;3775.20;;;3775.20;;
71174;SDS011;58876;51.994;4.472;2024-01-25T03:33:20;3343.35;;;3343.35;;
71174;SDS011;58876;51.994;4.472;2024-01-25T03:35:46;3208.60;;;3208.60;;
71174;SDS011;58876;51.994;4.472;2024-01-25T03:38:11;2546.94;;;2546.94;;
71174;SDS011;58876;51.994;4.472;2024-01-25T03:40:39;2077.37;;;2077.37;;
71174;SDS011;58876;51.994;4.472;2024-01-25T03:43:04;900.24;;;900.24;;
71174;SDS011;58876;51.994;4.472;2024-01-25T03:45:30;501.30;;;501.30;;
71174;SDS011;58876;51.994;4.472;2024-01-25T03:47:57;423.20;;;423.20;;
71174;SDS011;58876;51.994;4.472;2024-01-25T03:50:23;324.88;;;324.88;;
71174;SDS011;58876;51.994;4.472;2024-01-25T03:52:49;374.17;;;374.17;;
71174;SDS011;58876;51.994;4.472;2024-01-25T03:55:15;455.02;;;455.02;;
71174;SDS011;58876;51.994;4.472;2024-01-25T03:57:40;426.98;;;426.98;;
71174;SDS011;58876;51.994;4.472;2024-01-25T04:00:07;326.90;;;326.90;;
71174;SDS011;58876;51.994;4.472;2024-01-25T04:02:33;264.23;;;264.23;;
71174;SDS011;58876;51.994;4.472;2024-01-25T04:04:58;364.81;;;364.81;;
71174;SDS011;58876;51.994;4.472;2024-01-25T04:07:24;880.85;;;880.85;;
71174;SDS011;58876;51.994;4.472;2024-01-25T04:09:49;789.10;;;789.10;;
71174;SDS011;58876;51.994;4.472;2024-01-25T04:12:15;540.11;;;540.11;;
71174;SDS011;58876;51.994;4.472;2024-01-25T04:14:41;442.42;;;442.42;;
71174;SDS011;58876;51.994;4.472;2024-01-25T04:17:07;1111.49;;;1111.49;;
71174;SDS011;58876;51.994;4.472;2024-01-25T04:19:32;1905.67;;;1905.67;;
71174;SDS011;58876;51.994;4.472;2024-01-25T04:21:57;1761.55;;;1761.55;;
71174;SDS011;58876;51.994;4.472;2024-01-25T04:24:23;1272.29;;;1272.29;;
71174;SDS011;58876;51.994;4.472;2024-01-25T04:26:48;1085.12;;;1085.12;;
71174;SDS011;58876;51.994;4.472;2024-01-25T04:29:14;2656.08;;;2656.08;;
71174;SDS011;58876;51.994;4.472;2024-01-25T04:31:43;910.60;;;910.60;;
71174;SDS011;58876;51.994;4.472;2024-01-25T04:34:10;930.10;;;930.10;;
71174;SDS011;58876;51.994;4.472;2024-01-25T04:36:36;1643.71;;;1643.71;;
71174;SDS011;58876;51.994;4.472;2024-01-25T04:39:01;5344.06;;;4196.63;;
71174;SDS011;58876;51.994;4.472;2024-01-25T04:41:27;2120.08;;;2030.86;;
71174;SDS011;58876;51.994;4.472;2024-01-25T04:43:52;843.08;;;843.08;;
71174;SDS011;58876;51.994;4.472;2024-01-25T04:46:18;2597.50;;;2352.30;;
71174;SDS011;58876;51.994;4.472;2024-01-25T04:48:43;869.63;;;869.63;;
71174;SDS011;58876;51.994;4.472;2024-01-25T04:51:14;1302.23;;;1302.23;;
71174;SDS011;58876;51.994;4.472;2024-01-25T04:53:43;3894.28;;;3513.78;;
71174;SDS011;58876;51.994;4.472;2024-01-25T04:56:08;1353.15;;;1353.15;;
71174;SDS011;58876;51.994;4.472;2024-01-25T04:58:34;1337.33;;;1337.33;;
71174;SDS011;58876;51.994;4.472;2024-01-25T05:01:00;1370.33;;;1370.33;;
71174;SDS011;58876;51.994;4.472;2024-01-25T05:03:29;1151.83;;;1151.83;;
71174;SDS011;58876;51.994;4.472;2024-01-25T05:05:54;1059.65;;;1059.65;;
71174;SDS011;58876;51.994;4.472;2024-01-25T05:08:20;790.89;;;790.89;;
71174;SDS011;58876;51.994;4.472;2024-01-25T05:10:58;1114.74;;;1114.74;;
71174;SDS011;58876;51.994;4.472;2024-01-25T05:13:24;1349.10;;;1349.10;;
71174;SDS011;58876;51.994;4.472;2024-01-25T05:15:50;894.11;;;894.11;;
71174;SDS011;58876;51.994;4.472;2024-01-25T05:18:15;4711.90;;;3729.26;;
71174;SDS011;58876;51.994;4.472;2024-01-25T05:20:41;1165.68;;;1165.68;;
71174;SDS011;58876;51.994;4.472;2024-01-25T05:23:07;1635.03;;;1635.03;;
71174;SDS011;58876;51.994;4.472;2024-01-25T05:25:32;2243.39;;;2243.39;;
71174;SDS011;58876;51.994;4.472;2024-01-25T05:27:58;3379.15;;;3379.15;;
71174;SDS011;58876;51.994;4.472;2024-01-25T05:30:24;4435.98;;;4435.98;;
71174;SDS011;58876;51.994;4.472;2024-01-25T05:32:50;4877.87;;;4877.87;;
71174;SDS011;58876;51.994;4.472;2024-01-25T05:35:18;5177.66;;;5177.66;;
71174;SDS011;58876;51.994;4.472;2024-01-25T05:37:44;5496.98;;;5496.98;;
71174;SDS011;58876;51.994;4.472;2024-01-25T05:40:09;5708.56;;;5708.56;;
71174;SDS011;58876;51.994;4.472;2024-01-25T05:42:35;5777.13;;;5774.04;;
71174;SDS011;58876;51.994;4.472;2024-01-25T05:45:04;5814.63;;;5805.55;;
71174;SDS011;58876;51.994;4.472;2024-01-25T05:47:30;7925.80;;;7160.31;;
71174;SDS011;58876;51.994;4.472;2024-01-25T05:49:56;6427.03;;;6362.65;;
71174;SDS011;58876;51.994;4.472;2024-01-25T05:52:22;9462.90;;;8243.31;;
71174;SDS011;58876;51.994;4.472;2024-01-25T05:54:49;6181.63;;;6094.14;;
71174;SDS011;58876;51.994;4.472;2024-01-25T05:57:15;6045.45;;;5986.09;;
71174;SDS011;58876;51.994;4.472;2024-01-25T05:59:41;6520.74;;;6367.05;;
71174;SDS011;58876;51.994;4.472;2024-01-25T06:02:06;6267.97;;;6147.40;;
71174;SDS011;58876;51.994;4.472;2024-01-25T06:04:33;5516.53;;;5515.97;;
71174;SDS011;58876;51.994;4.472;2024-01-25T06:06:58;4667.72;;;4667.72;;
71174;SDS011;58876;51.994;4.472;2024-01-25T06:09:23;3847.90;;;3847.90;;
71174;SDS011;58876;51.994;4.472;2024-01-25T06:11:52;3991.50;;;3991.50;;
71174;SDS011;58876;51.994;4.472;2024-01-25T06:14:18;4618.95;;;4618.95;;
71174;SDS011;58876;51.994;4.472;2024-01-25T06:16:43;5426.72;;;5426.72;;
71174;SDS011;58876;51.994;4.472;2024-01-25T06:19:10;5814.30;;;5814.30;;
71174;SDS011;58876;51.994;4.472;2024-01-25T06:21:36;5885.71;;;5881.03;;
71174;SDS011;58876;51.994;4.472;2024-01-25T06:24:05;4190.52;;;4190.52;;
71174;SDS011;58876;51.994;4.472;2024-01-25T06:26:31;1509.55;;;1509.55;;
71174;SDS011;58876;51.994;4.472;2024-01-25T06:28:56;1333.30;;;1333.30;;
71174;SDS011;58876;51.994;4.472;2024-01-25T06:31:22;1370.21;;;1370.21;;
71174;SDS011;58876;51.994;4.472;2024-01-25T06:33:50;6211.66;;;4726.96;;
71174;SDS011;58876;51.994;4.472;2024-01-25T06:36:20;1000.05;;;1000.04;;
71174;SDS011;58876;51.994;4.472;2024-01-25T06:38:46;1624.94;;;1624.94;;
71174;SDS011;58876;51.994;4.472;2024-01-25T06:41:12;3743.41;;;3525.00;;
71174;SDS011;58876;51.994;4.472;2024-01-25T06:43:38;1512.33;;;1512.33;;
71174;SDS011;58876;51.994;4.472;2024-01-25T06:46:05;1967.85;;;1967.85;;
71174;SDS011;58876;51.994;4.472;2024-01-25T06:48:31;1750.51;;;1750.51;;
71174;SDS011;58876;51.994;4.472;2024-01-25T06:50:57;611.43;;;611.43;;
71174;SDS011;58876;51.994;4.472;2024-01-25T06:53:22;7655.89;;;5656.77;;
71174;SDS011;58876;51.994;4.472;2024-01-25T06:55:48;821.83;;;821.79;;
71174;SDS011;58876;51.994;4.472;2024-01-25T06:58:13;1020.13;;;1020.13;;
71174;SDS011;58876;51.994;4.472;2024-01-25T07:00:39;1347.42;;;1347.42;;
71174;SDS011;58876;51.994;4.472;2024-01-25T07:03:07;1620.17;;;1620.17;;
71174;SDS011;58876;51.994;4.472;2024-01-25T07:05:32;1462.96;;;1462.96;;
71174;SDS011;58876;51.994;4.472;2024-01-25T07:07:59;989.12;;;989.12;;
71174;SDS011;58876;51.994;4.472;2024-01-25T07:10:25;1509.84;;;1509.84;;
71174;SDS011;58876;51.994;4.472;2024-01-25T07:12:50;3785.35;;;3785.35;;
71174;SDS011;58876;51.994;4.472;2024-01-25T07:15:17;3956.54;;;3956.54;;
71174;SDS011;58876;51.994;4.472;2024-01-25T07:17:43;7769.93;;;6399.42;;
71174;SDS011;58876;51.994;4.472;2024-01-25T07:20:09;3860.20;;;3860.20;;
71174;SDS011;58876;51.994;4.472;2024-01-25T07:22:34;3389.28;;;3389.28;;
71174;SDS011;58876;51.994;4.472;2024-01-25T07:25:00;3404.96;;;3404.96;;
71174;SDS011;58876;51.994;4.472;2024-01-25T07:27:29;3894.20;;;3894.20;;
71174;SDS011;58876;51.994;4.472;2024-01-25T07:29:54;11049.54;;;8298.47;;
71174;SDS011;58876;51.994;4.472;2024-01-25T07:32:20;4773.64;;;4727.84;;
71174;SDS011;58876;51.994;4.472;2024-01-25T07:34:45;5299.50;;;5299.50;;
71174;SDS011;58876;51.994;4.472;2024-01-25T07:37:12;16786.48;;;11978.57;;
71174;SDS011;58876;51.994;4.472;2024-01-25T07:39:38;5159.04;;;5159.01;;
71174;SDS011;58876;51.994;4.472;2024-01-25T07:42:03;5691.90;;;5666.73;;
71174;SDS011;58876;51.994;4.472;2024-01-25T07:44:29;5775.58;;;5362.87;;
71174;SDS011;58876;51.994;4.472;2024-01-25T07:46:55;5307.65;;;5023.70;;
71174;SDS011;58876;51.994;4.472;2024-01-25T07:49:20;4578.11;;;4528.35;;
71174;SDS011;58876;51.994;4.472;2024-01-25T07:51:46;4850.46;;;4850.46;;
71174;SDS011;58876;51.994;4.472;2024-01-25T07:54:12;5484.92;;;5484.92;;
71174;SDS011;58876;51.994;4.472;2024-01-25T07:56:38;6034.97;;;6000.08;;
71174;SDS011;58876;51.994;4.472;2024-01-25T07:59:03;5619.03;;;5609.13;;
71174;SDS011;58876;51.994;4.472;2024-01-25T08:01:29;6621.50;;;6106.26;;
71174;SDS011;58876;51.994;4.472;2024-01-25T08:03:54;4341.61;;;4341.50;;
71174;SDS011;58876;51.994;4.472;2024-01-25T08:06:20;4547.25;;;4547.25;;
71174;SDS011;58876;51.994;4.472;2024-01-25T08:08:46;4622.73;;;4622.73;;
71174;SDS011;58876;51.994;4.472;2024-01-25T08:11:11;4625.32;;;4625.32;;
71174;SDS011;58876;51.994;4.472;2024-01-25T08:13:37;4465.10;;;4465.10;;
71174;SDS011;58876;51.994;4.472;2024-01-25T08:16:03;4346.99;;;4346.99;;
71174;SDS011;58876;51.994;4.472;2024-01-25T08:18:28;4691.13;;;4691.13;;
71174;SDS011;58876;51.994;4.472;2024-01-25T08:20:55;4833.06;;;4833.06;;
71174;SDS011;58876;51.994;4.472;2024-01-25T08:23:21;4904.10;;;4904.10;;
71174;SDS011;58876;51.994;4.472;2024-01-25T08:25:46;7432.76;;;6654.43;;
71174;SDS011;58876;51.994;4.472;2024-01-25T08:28:12;6406.90;;;6277.45;;
71174;SDS011;58876;51.994;4.472;2024-01-25T08:30:38;8481.62;;;7512.40;;
71174;SDS011;58876;51.994;4.472;2024-01-25T08:33:03;6839.69;;;6419.57;;
71174;SDS011;58876;51.994;4.472;2024-01-25T08:35:29;7061.74;;;6607.93;;
71174;SDS011;58876;51.994;4.472;2024-01-25T08:37:57;6685.67;;;6451.61;;
71174;SDS011;58876;51.994;4.472;2024-01-25T08:40:23;6670.29;;;6455.51;;
71174;SDS011;58876;51.994;4.472;2024-01-25T08:42:49;8307.96;;;7523.90;;
71174;SDS011;58876;51.994;4.472;2024-01-25T08:45:17;40096.88;;;23428.64;;
71174;SDS011;58876;51.994;4.472;2024-01-25T08:47:44;8272.03;;;7036.19;;
71174;SDS011;58876;51.994;4.472;2024-01-25T08:50:11;6607.31;;;6285.59;;
71174;SDS011;58876;51.994;4.472;2024-01-25T08:52:37;6334.95;;;6111.74;;
71174;SDS011;58876;51.994;4.472;2024-01-25T08:55:05;5614.23;;;5572.28;;
71174;SDS011;58876;51.994;4.472;2024-01-25T08:57:31;5185.41;;;5135.73;;
71174;SDS011;58876;51.994;4.472;2024-01-25T08:59:56;4899.51;;;4898.20;;
71174;SDS011;58876;51.994;4.472;2024-01-25T09:02:24;4959.41;;;4957.76;;
71174;SDS011;58876;51.994;4.472;2024-01-25T09:04:52;5056.19;;;5056.19;;
71174;SDS011;58876;51.994;4.472;2024-01-25T09:07:21;5231.67;;;5228.49;;
71174;SDS011;58876;51.994;4.472;2024-01-25T09:09:48;5224.68;;;5223.28;;
71174;SDS011;58876;51.994;4.472;2024-01-25T09:12:14;5120.63;;;5114.66;;
71174;SDS011;58876;51.994;4.472;2024-01-25T09:14:41;5124.04;;;5120.19;;
71174;SDS011;58876;51.994;4.472;2024-01-25T09:17:07;4465.63;;;4465.63;;
71174;SDS011;58876;51.994;4.472;2024-01-25T09:19:34;4249.76;;;4249.76;;
71174;SDS011;58876;51.994;4.472;2024-01-25T09:22:00;2760.77;;;2760.77;;
71174;SDS011;58876;51.994;4.472;2024-01-25T09:24:29;1957.41;;;1957.41;;
71174;SDS011;58876;51.994;4.472;2024-01-25T09:26:59;2018.03;;;2018.03;;
71174;SDS011;58876;51.994;4.472;2024-01-25T09:29:24;1969.26;;;1969.26;;
71174;SDS011;58876;51.994;4.472;2024-01-25T09:31:50;1884.20;;;1884.20;;
71174;SDS011;58876;51.994;4.472;2024-01-25T09:34:16;2341.41;;;2341.41;;
71174;SDS011;58876;51.994;4.472;2024-01-25T09:36:41;2392.91;;;2392.91;;
71174;SDS011;58876;51.994;4.472;2024-01-25T09:39:07;4010.23;;;4010.23;;
71174;SDS011;58876;51.994;4.472;2024-01-25T09:41:33;5049.49;;;5049.49;;
71174;SDS011;58876;51.994;4.472;2024-01-25T09:43:58;5286.08;;;5286.08;;
71174;SDS011;58876;51.994;4.472;2024-01-25T09:46:24;5342.21;;;5342.21;;
71174;SDS011;58876;51.994;4.472;2024-01-25T09:48:50;5244.31;;;5244.31;;
71174;SDS011;58876;51.994;4.472;2024-01-25T09:51:16;5052.99;;;5052.99;;
71174;SDS011;58876;51.994;4.472;2024-01-25T09:53:42;5012.69;;;5012.69;;
71174;SDS011;58876;51.994;4.472;2024-01-25T09:56:10;4998.45;;;4998.45;;
71174;SDS011;58876;51.994;4.472;2024-01-25T09:58:41;4677.86;;;4677.86;;
71174;SDS011;58876;51.994;4.472;2024-01-25T10:01:10;4755.99;;;4755.99;;
71174;SDS011;58876;51.994;4.472;2024-01-25T10:03:43;4965.33;;;4965.33;;
71174;SDS011;58876;51.994;4.472;2024-01-25T10:06:13;5263.99;;;5263.99;;
71174;SDS011;58876;51.994;4.472;2024-01-25T10:08:40;5062.76;;;5062.76;;
71174;SDS011;58876;51.994;4.472;2024-01-25T10:11:07;5207.89;;;5204.01;;
71174;SDS011;58876;51.994;4.472;2024-01-25T10:13:49;5263.20;;;5262.74;;
71174;SDS011;58876;51.994;4.472;2024-01-25T10:16:16;5379.60;;;5376.92;;
71174;SDS011;58876;51.994;4.472;2024-01-25T10:18:44;5236.14;;;5234.94;;
71174;SDS011;58876;51.994;4.472;2024-01-25T10:21:12;5282.79;;;5282.79;;
71174;SDS011;58876;51.994;4.472;2024-01-25T10:23:39;5286.84;;;5286.84;;
71174;SDS011;58876;51.994;4.472;2024-01-25T10:26:05;5416.42;;;5414.33;;
71174;SDS011;58876;51.994;4.472;2024-01-25T10:28:33;5337.16;;;5335.66;;
71174;SDS011;58876;51.994;4.472;2024-01-25T10:31:00;5431.22;;;5429.65;;
71174;SDS011;58876;51.994;4.472;2024-01-25T10:33:27;5810.51;;;5802.55;;
71174;SDS011;58876;51.994;4.472;2024-01-25T10:35:53;6071.41;;;6005.30;;
71174;SDS011;58876;51.994;4.472;2024-01-25T10:38:23;6021.87;;;5983.00;;
71174;SDS011;58876;51.994;4.472;2024-01-25T10:40:50;5478.40;;;5457.67;;
71174;SDS011;58876;51.994;4.472;2024-01-25T10:43:18;4527.15;;;4527.15;;
71174;SDS011;58876;51.994;4.472;2024-01-25T10:45:43;4332.50;;;4332.50;;
71174;SDS011;58876;51.994;4.472;2024-01-25T10:48:10;3961.13;;;3961.13;;
71174;SDS011;58876;51.994;4.472;2024-01-25T10:50:36;4344.50;;;4344.50;;
71174;SDS011;58876;51.994;4.472;2024-01-25T10:53:02;4905.67;;;4905.67;;
71174;SDS011;58876;51.994;4.472;2024-01-25T10:55:31;4823.93;;;4823.93;;
71174;SDS011;58876;51.994;4.472;2024-01-25T10:57:56;4279.29;;;4279.29;;
71174;SDS011;58876;51.994;4.472;2024-01-25T11:00:22;4378.81;;;4378.81;;
71174;SDS011;58876;51.994;4.472;2024-01-25T11:02:48;5072.53;;;5072.53;;
71174;SDS011;58876;51.994;4.472;2024-01-25T11:05:16;5488.00;;;5481.31;;
71174;SDS011;58876;51.994;4.472;2024-01-25T11:07:44;5713.98;;;5713.98;;
71174;SDS011;58876;51.994;4.472;2024-01-25T11:10:21;5610.81;;;5610.81;;
71174;SDS011;58876;51.994;4.472;2024-01-25T11:12:58;5373.01;;;5373.01;;
71174;SDS011;58876;51.994;4.472;2024-01-25T11:15:32;4937.76;;;4937.76;;
71174;SDS011;58876;51.994;4.472;2024-01-25T11:18:00;5075.76;;;5074.89;;
71174;SDS011;58876;51.994;4.472;2024-01-25T11:20:28;5355.84;;;5337.07;;
71174;SDS011;58876;51.994;4.472;2024-01-25T11:25:34;5986.64;;;5858.60;;
71174;SDS011;58876;51.994;4.472;2024-01-25T11:28:02;6377.94;;;6189.32;;
71174;SDS011;58876;51.994;4.472;2024-01-25T11:30:30;6864.32;;;6257.09;;
71174;SDS011;58876;51.994;4.472;2024-01-25T11:32:57;7114.68;;;6456.88;;
71174;SDS011;58876;51.994;4.472;2024-01-25T11:35:23;5589.46;;;5574.81;;
71174;SDS011;58876;51.994;4.472;2024-01-25T11:37:49;4746.78;;;4746.74;;
71174;SDS011;58876;51.994;4.472;2024-01-25T11:40:18;2564.94;;;2564.94;;
71174;SDS011;58876;51.994;4.472;2024-01-25T11:42:47;2348.67;;;2348.67;;
71174;SDS011;58876;51.994;4.472;2024-01-25T11:45:14;1772.01;;;1772.01;;
71174;SDS011;58876;51.994;4.472;2024-01-25T11:47:40;549.90;;;549.90;;
71174;SDS011;58876;51.994;4.472;2024-01-25T11:50:09;691.07;;;691.07;;
71174;SDS011;58876;51.994;4.472;2024-01-25T11:52:36;459.51;;;459.51;;
71174;SDS011;58876;51.994;4.472;2024-01-25T11:55:03;838.91;;;838.91;;
71174;SDS011;58876;51.994;4.472;2024-01-25T11:57:40;1570.69;;;1570.69;;
71174;SDS011;58876;51.994;4.472;2024-01-25T12:00:09;1204.75;;;1204.75;;
71174;SDS011;58876;51.994;4.472;2024-01-25T12:02:39;1356.85;;;1356.85;;
71174;SDS011;58876;51.994;4.472;2024-01-25T12:05:05;1438.16;;;1438.16;;
71174;SDS011;58876;51.994;4.472;2024-01-25T12:07:35;2176.22;;;2176.22;;
71174;SDS011;58876;51.994;4.472;2024-01-25T12:10:05;3125.36;;;3125.36;;
71174;SDS011;58876;51.994;4.472;2024-01-25T12:12:32;3634.30;;;3634.30;;
71174;SDS011;58876;51.994;4.472;2024-01-25T12:15:01;3927.74;;;3927.74;;
71174;SDS011;58876;51.994;4.472;2024-01-25T12:17:30;4318.62;;;4318.62;;
71174;SDS011;58876;51.994;4.472;2024-01-25T12:19:59;4746.12;;;4746.12;;
71174;SDS011;58876;51.994;4.472;2024-01-25T12:22:28;4714.12;;;4714.12;;
71174;SDS011;58876;51.994;4.472;2024-01-25T12:24:57;4238.21;;;4238.21;;
71174;SDS011;58876;51.994;4.472;2024-01-25T12:27:23;3937.67;;;3937.67;;
71174;SDS011;58876;51.994;4.472;2024-01-25T12:29:51;4451.25;;;4451.25;;
71174;SDS011;58876;51.994;4.472;2024-01-25T12:32:21;4583.33;;;4583.33;;
71174;SDS011;58876;51.994;4.472;2024-01-25T12:34:55;4939.74;;;4939.74;;
71174;SDS011;58876;51.994;4.472;2024-01-25T12:37:20;4563.05;;;4563.05;;
71174;SDS011;58876;51.994;4.472;2024-01-25T12:39:46;4496.01;;;4496.01;;
71174;SDS011;58876;51.994;4.472;2024-01-25T12:42:12;4215.19;;;4215.19;;
71174;SDS011;58876;51.994;4.472;2024-01-25T12:44:38;3464.40;;;3464.40;;
71174;SDS011;58876;51.994;4.472;2024-01-25T12:47:04;3340.94;;;3340.94;;
71174;SDS011;58876;51.994;4.472;2024-01-25T12:49:32;3231.35;;;3231.35;;
71174;SDS011;58876;51.994;4.472;2024-01-25T12:51:58;2719.21;;;2719.21;;
71174;SDS011;58876;51.994;4.472;2024-01-25T12:54:24;3040.86;;;3040.86;;
71174;SDS011;58876;51.994;4.472;2024-01-25T12:56:50;2906.79;;;2906.79;;
71174;SDS011;58876;51.994;4.472;2024-01-25T12:59:16;2680.57;;;2680.57;;
71174;SDS011;58876;51.994;4.472;2024-01-25T13:01:41;2296.51;;;2296.51;;
71174;SDS011;58876;51.994;4.472;2024-01-25T13:04:07;1591.10;;;1591.10;;
71174;SDS011;58876;51.994;4.472;2024-01-25T13:06:33;1754.66;;;1754.66;;
71174;SDS011;58876;51.994;4.472;2024-01-25T13:08:58;2446.20;;;2446.20;;
71174;SDS011;58876;51.994;4.472;2024-01-25T13:11:24;2810.96;;;2810.96;;
71174;SDS011;58876;51.994;4.472;2024-01-25T13:13:49;2415.80;;;2415.80;;
71174;SDS011;58876;51.994;4.472;2024-01-25T13:16:16;1713.65;;;1713.65;;
71174;SDS011;58876;51.994;4.472;2024-01-25T13:18:42;2105.05;;;2105.05;;
71174;SDS011;58876;51.994;4.472;2024-01-25T13:21:07;2715.87;;;2715.87;;
71174;SDS011;58876;51.994;4.472;2024-01-25T13:23:33;3664.05;;;3664.05;;
71174;SDS011;58876;51.994;4.472;2024-01-25T13:25:59;3992.17;;;3992.17;;
71174;SDS011;58876;51.994;4.472;2024-01-25T13:28:24;3853.96;;;3853.96;;
71174;SDS011;58876;51.994;4.472;2024-01-25T13:30:49;3879.70;;;3879.70;;
71174;SDS011;58876;51.994;4.472;2024-01-25T13:33:15;4523.04;;;4523.04;;